sensor_id;sensor_type;location;lat;lon;timestamp;pressure;altitude;pressure_sealevel;temperature;humidity
78892;BME280;68368;51.728;5.248;2023-04-03T00:00:24;103112.70;;;3.84;70.53
78892;BME280;68368;51.728;5.248;2023-04-03T00:02:25;103112.77;;;3.82;70.42
78892;BME280;68368;51.728;5.248;2023-04-03T00:04:28;103116.13;;;3.79;70.31
78892;BME280;68368;51.728;5.248;2023-04-03T00:06:30;103119.01;;;3.77;70.55
78892;BME280;68368;51.728;5.248;2023-04-03T00:08:31;103120.69;;;3.75;70.42
78892;BME280;68368;51.728;5.248;2023-04-03T00:10:35;103118.23;;;3.73;70.63
78892;BME280;68368;51.728;5.248;2023-04-03T00:12:37;103117.77;;;3.70;70.71
78892;BME280;68368;51.728;5.248;2023-04-03T00:14:39;103125.83;;;3.67;70.42
78892;BME280;68368;51.728;5.248;2023-04-03T00:16:43;103121.22;;;3.63;70.21
78892;BME280;68368;51.728;5.248;2023-04-03T00:18:45;103125.15;;;3.61;70.48
78892;BME280;68368;51.728;5.248;2023-04-03T00:20:47;103125.89;;;3.58;70.31
78892;BME280;68368;51.728;5.248;2023-04-03T00:22:50;103125.98;;;3.57;70.47
78892;BME280;68368;51.728;5.248;2023-04-03T00:24:51;103127.67;;;3.56;70.41
78892;BME280;68368;51.728;5.248;2023-04-03T00:26:53;103130.11;;;3.56;70.51
78892;BME280;68368;51.728;5.248;2023-04-03T00:28:57;103130.00;;;3.54;70.21
78892;BME280;68368;51.728;5.248;2023-04-03T00:30:59;103133.22;;;3.52;70.62
78892;BME280;68368;51.728;5.248;2023-04-03T00:33:02;103135.58;;;3.50;70.22
78892;BME280;68368;51.728;5.248;2023-04-03T00:35:05;103134.61;;;3.48;70.42
78892;BME280;68368;51.728;5.248;2023-04-03T00:37:11;103136.39;;;3.46;70.48
78892;BME280;68368;51.728;5.248;2023-04-03T00:39:13;103137.48;;;3.43;70.88
78892;BME280;68368;51.728;5.248;2023-04-03T00:41:14;103140.28;;;3.39;70.94
78892;BME280;68368;51.728;5.248;2023-04-03T00:43:21;103138.62;;;3.38;71.08
78892;BME280;68368;51.728;5.248;2023-04-03T00:45:32;103137.63;;;3.36;70.95
78892;BME280;68368;51.728;5.248;2023-04-03T00:47:36;103139.25;;;3.34;71.10
78892;BME280;68368;51.728;5.248;2023-04-03T00:49:40;103145.14;;;3.32;70.97
78892;BME280;68368;51.728;5.248;2023-04-03T00:51:44;103141.79;;;3.29;71.05
78892;BME280;68368;51.728;5.248;2023-04-03T00:53:52;103141.85;;;3.27;70.95
78892;BME280;68368;51.728;5.248;2023-04-03T00:55:56;103144.75;;;3.25;71.08
78892;BME280;68368;51.728;5.248;2023-04-03T00:57:58;103147.69;;;3.22;71.38
78892;BME280;68368;51.728;5.248;2023-04-03T01:00:07;103151.94;;;3.19;71.06
78892;BME280;68368;51.728;5.248;2023-04-03T01:02:12;103154.23;;;3.16;71.27
78892;BME280;68368;51.728;5.248;2023-04-03T01:04:27;103155.77;;;3.12;71.45
78892;BME280;68368;51.728;5.248;2023-04-03T01:06:34;103155.44;;;3.10;71.56
78892;BME280;68368;51.728;5.248;2023-04-03T01:08:35;103150.43;;;3.08;71.56
78892;BME280;68368;51.728;5.248;2023-04-03T01:10:37;103151.66;;;3.05;71.63
78892;BME280;68368;51.728;5.248;2023-04-03T01:12:41;103148.56;;;3.03;71.54
78892;BME280;68368;51.728;5.248;2023-04-03T01:14:44;103153.65;;;3.00;71.60
78892;BME280;68368;51.728;5.248;2023-04-03T01:16:53;103153.45;;;2.97;71.70
78892;BME280;68368;51.728;5.248;2023-04-03T01:18:56;103154.91;;;2.94;71.75
78892;BME280;68368;51.728;5.248;2023-04-03T01:25:56;103152.92;;;2.84;72.06
78892;BME280;68368;51.728;5.248;2023-04-03T01:27:58;103154.99;;;2.81;72.32
78892;BME280;68368;51.728;5.248;2023-04-03T01:30:04;103152.02;;;2.79;72.20
78892;BME280;68368;51.728;5.248;2023-04-03T01:32:06;103154.79;;;2.78;72.29
78892;BME280;68368;51.728;5.248;2023-04-03T01:34:08;103153.85;;;2.77;72.26
78892;BME280;68368;51.728;5.248;2023-04-03T01:36:14;103152.13;;;2.77;72.32
78892;BME280;68368;51.728;5.248;2023-04-03T01:38:17;103147.77;;;2.78;72.46
78892;BME280;68368;51.728;5.248;2023-04-03T01:40:22;103149.81;;;2.77;72.22
78892;BME280;68368;51.728;5.248;2023-04-03T01:42:24;103152.10;;;2.77;72.20
78892;BME280;68368;51.728;5.248;2023-04-03T01:44:26;103151.52;;;2.76;72.40
78892;BME280;68368;51.728;5.248;2023-04-03T01:46:28;103153.56;;;2.75;72.42
78892;BME280;68368;51.728;5.248;2023-04-03T01:48:30;103149.74;;;2.72;72.60
78892;BME280;68368;51.728;5.248;2023-04-03T01:50:33;103152.84;;;2.71;72.52
78892;BME280;68368;51.728;5.248;2023-04-03T01:52:35;103150.46;;;2.69;72.46
78892;BME280;68368;51.728;5.248;2023-04-03T01:54:39;103150.02;;;2.68;72.81
78892;BME280;68368;51.728;5.248;2023-04-03T01:56:41;103152.61;;;2.67;72.76
78892;BME280;68368;51.728;5.248;2023-04-03T01:58:43;103151.77;;;2.68;72.81
78892;BME280;68368;51.728;5.248;2023-04-03T02:00:45;103154.09;;;2.68;72.68
78892;BME280;68368;51.728;5.248;2023-04-03T02:02:47;103153.17;;;2.68;72.74
78892;BME280;68368;51.728;5.248;2023-04-03T02:04:49;103150.95;;;2.66;72.80
78892;BME280;68368;51.728;5.248;2023-04-03T02:06:51;103152.29;;;2.65;72.83
78892;BME280;68368;51.728;5.248;2023-04-03T02:08:53;103156.30;;;2.65;73.02
78892;BME280;68368;51.728;5.248;2023-04-03T02:10:55;103157.17;;;2.65;73.11
78892;BME280;68368;51.728;5.248;2023-04-03T02:12:57;103158.71;;;2.64;73.10
78892;BME280;68368;51.728;5.248;2023-04-03T02:15:00;103161.45;;;2.63;73.33
78892;BME280;68368;51.728;5.248;2023-04-03T02:17:03;103160.48;;;2.61;73.09
78892;BME280;68368;51.728;5.248;2023-04-03T02:19:05;103161.67;;;2.61;73.15
78892;BME280;68368;51.728;5.248;2023-04-03T02:21:09;103166.49;;;2.62;73.02
78892;BME280;68368;51.728;5.248;2023-04-03T02:23:11;103168.80;;;2.62;73.34
78892;BME280;68368;51.728;5.248;2023-04-03T02:25:13;103167.80;;;2.60;73.35
78892;BME280;68368;51.728;5.248;2023-04-03T02:27:16;103169.05;;;2.61;73.40
78892;BME280;68368;51.728;5.248;2023-04-03T02:29:17;103168.27;;;2.59;73.41
78892;BME280;68368;51.728;5.248;2023-04-03T02:31:20;103168.58;;;2.59;73.49
78892;BME280;68368;51.728;5.248;2023-04-03T02:33:22;103170.58;;;2.57;73.66
78892;BME280;68368;51.728;5.248;2023-04-03T02:35:24;103171.74;;;2.56;73.66
78892;BME280;68368;51.728;5.248;2023-04-03T02:37:26;103180.92;;;2.54;73.61
78892;BME280;68368;51.728;5.248;2023-04-03T02:39:28;103181.81;;;2.54;73.46
78892;BME280;68368;51.728;5.248;2023-04-03T02:41:30;103182.95;;;2.56;73.54
78892;BME280;68368;51.728;5.248;2023-04-03T02:43:33;103182.99;;;2.56;73.56
78892;BME280;68368;51.728;5.248;2023-04-03T02:45:35;103187.75;;;2.57;73.41
78892;BME280;68368;51.728;5.248;2023-04-03T02:47:37;103185.02;;;2.55;73.44
78892;BME280;68368;51.728;5.248;2023-04-03T02:49:43;103187.67;;;2.56;73.47
78892;BME280;68368;51.728;5.248;2023-04-03T02:51:48;103186.52;;;2.54;73.81
78892;BME280;68368;51.728;5.248;2023-04-03T02:53:50;103187.04;;;2.54;73.59
78892;BME280;68368;51.728;5.248;2023-04-03T02:55:52;103190.09;;;2.52;73.68
78892;BME280;68368;51.728;5.248;2023-04-03T02:57:54;103188.79;;;2.51;74.01
78892;BME280;68368;51.728;5.248;2023-04-03T02:59:56;103182.64;;;2.51;73.77
78892;BME280;68368;51.728;5.248;2023-04-03T03:01:58;103185.98;;;2.51;73.85
78892;BME280;68368;51.728;5.248;2023-04-03T03:04:00;103181.73;;;2.50;73.86
78892;BME280;68368;51.728;5.248;2023-04-03T03:06:04;103181.66;;;2.49;73.83
78892;BME280;68368;51.728;5.248;2023-04-03T03:08:07;103178.65;;;2.48;73.80
78892;BME280;68368;51.728;5.248;2023-04-03T03:10:10;103186.46;;;2.47;73.80
78892;BME280;68368;51.728;5.248;2023-04-03T03:12:12;103184.43;;;2.45;74.02
78892;BME280;68368;51.728;5.248;2023-04-03T03:14:14;103182.92;;;2.44;73.86
78892;BME280;68368;51.728;5.248;2023-04-03T03:16:16;103186.30;;;2.41;74.08
78892;BME280;68368;51.728;5.248;2023-04-03T03:18:18;103183.13;;;2.38;74.26
78892;BME280;68368;51.728;5.248;2023-04-03T03:20:20;103187.98;;;2.37;74.28
78892;BME280;68368;51.728;5.248;2023-04-03T03:22:22;103189.57;;;2.38;74.06
78892;BME280;68368;51.728;5.248;2023-04-03T03:24:24;103189.68;;;2.37;74.43
78892;BME280;68368;51.728;5.248;2023-04-03T03:26:26;103189.30;;;2.36;74.34
78892;BME280;68368;51.728;5.248;2023-04-03T03:28:29;103191.31;;;2.35;74.47
78892;BME280;68368;51.728;5.248;2023-04-03T03:30:31;103193.13;;;2.33;74.35
78892;BME280;68368;51.728;5.248;2023-04-03T03:32:33;103195.66;;;2.31;74.62
78892;BME280;68368;51.728;5.248;2023-04-03T03:34:35;103197.94;;;2.28;74.93
78892;BME280;68368;51.728;5.248;2023-04-03T03:36:37;103198.67;;;2.23;74.61
78892;BME280;68368;51.728;5.248;2023-04-03T03:38:39;103201.95;;;2.19;75.00
78892;BME280;68368;51.728;5.248;2023-04-03T03:40:42;103203.96;;;2.18;74.84
78892;BME280;68368;51.728;5.248;2023-04-03T03:42:46;103202.80;;;2.17;74.91
78892;BME280;68368;51.728;5.248;2023-04-03T03:44:48;103211.49;;;2.15;75.06
78892;BME280;68368;51.728;5.248;2023-04-03T03:46:49;103211.59;;;2.14;75.00
78892;BME280;68368;51.728;5.248;2023-04-03T03:48:51;103212.17;;;2.12;75.14
78892;BME280;68368;51.728;5.248;2023-04-03T03:50:56;103215.46;;;2.12;75.34
78892;BME280;68368;51.728;5.248;2023-04-03T03:53:00;103218.60;;;2.09;75.42
78892;BME280;68368;51.728;5.248;2023-04-03T03:55:02;103219.49;;;2.06;75.43
78892;BME280;68368;51.728;5.248;2023-04-03T03:57:04;103218.04;;;2.02;75.67
78892;BME280;68368;51.728;5.248;2023-04-03T03:59:06;103221.45;;;2.01;75.67
78892;BME280;68368;51.728;5.248;2023-04-03T04:01:11;103219.30;;;2.00;75.76
78892;BME280;68368;51.728;5.248;2023-04-03T04:03:16;103221.30;;;2.01;75.80
78892;BME280;68368;51.728;5.248;2023-04-03T04:05:18;103219.57;;;2.01;75.52
78892;BME280;68368;51.728;5.248;2023-04-03T04:07:20;103218.27;;;2.00;75.81
78892;BME280;68368;51.728;5.248;2023-04-03T04:09:25;103221.72;;;2.00;75.95
78892;BME280;68368;51.728;5.248;2023-04-03T04:11:29;103215.04;;;1.99;75.75
78892;BME280;68368;51.728;5.248;2023-04-03T04:13:31;103216.54;;;1.98;76.09
78892;BME280;68368;51.728;5.248;2023-04-03T04:15:34;103219.43;;;1.96;76.03
78892;BME280;68368;51.728;5.248;2023-04-03T04:17:36;103218.13;;;1.95;76.11
78892;BME280;68368;51.728;5.248;2023-04-03T04:19:38;103218.01;;;1.93;76.11
78892;BME280;68368;51.728;5.248;2023-04-03T04:21:40;103222.06;;;1.94;76.27
78892;BME280;68368;51.728;5.248;2023-04-03T04:23:44;103224.19;;;1.95;76.11
78892;BME280;68368;51.728;5.248;2023-04-03T04:25:46;103219.48;;;1.94;76.36
78892;BME280;68368;51.728;5.248;2023-04-03T04:27:50;103221.34;;;1.94;76.22
78892;BME280;68368;51.728;5.248;2023-04-03T04:29:53;103219.05;;;1.93;76.38
78892;BME280;68368;51.728;5.248;2023-04-03T04:31:57;103217.07;;;1.92;76.35
78892;BME280;68368;51.728;5.248;2023-04-03T04:34:00;103217.19;;;1.91;76.54
78892;BME280;68368;51.728;5.248;2023-04-03T04:36:03;103221.59;;;1.89;76.51
78892;BME280;68368;51.728;5.248;2023-04-03T04:38:05;103219.95;;;1.88;76.48
78892;BME280;68368;51.728;5.248;2023-04-03T04:40:09;103217.14;;;1.88;76.59
78892;BME280;68368;51.728;5.248;2023-04-03T04:42:14;103222.23;;;1.88;76.70
78892;BME280;68368;51.728;5.248;2023-04-03T04:44:26;103221.51;;;1.88;76.60
78892;BME280;68368;51.728;5.248;2023-04-03T04:46:31;103227.11;;;1.88;76.66
78892;BME280;68368;51.728;5.248;2023-04-03T04:48:34;103232.11;;;1.87;76.82
78892;BME280;68368;51.728;5.248;2023-04-03T04:50:36;103236.02;;;1.85;76.98
78892;BME280;68368;51.728;5.248;2023-04-03T04:52:39;103234.89;;;1.84;77.03
78892;BME280;68368;51.728;5.248;2023-04-03T04:54:44;103238.98;;;1.82;77.14
78892;BME280;68368;51.728;5.248;2023-04-03T04:56:46;103238.54;;;1.80;77.36
78892;BME280;68368;51.728;5.248;2023-04-03T04:58:47;103240.19;;;1.79;77.04
78892;BME280;68368;51.728;5.248;2023-04-03T05:00:49;103241.62;;;1.79;76.97
78892;BME280;68368;51.728;5.248;2023-04-03T05:02:51;103239.30;;;1.78;77.29
78892;BME280;68368;51.728;5.248;2023-04-03T05:04:53;103241.38;;;1.78;76.92
78892;BME280;68368;51.728;5.248;2023-04-03T05:06:55;103246.39;;;1.77;77.10
78892;BME280;68368;51.728;5.248;2023-04-03T05:08:57;103248.21;;;1.76;76.91
78892;BME280;68368;51.728;5.248;2023-04-03T05:11:01;103245.52;;;1.74;76.96
78892;BME280;68368;51.728;5.248;2023-04-03T05:13:03;103246.40;;;1.75;76.84
78892;BME280;68368;51.728;5.248;2023-04-03T05:15:08;103244.89;;;1.73;76.96
78892;BME280;68368;51.728;5.248;2023-04-03T05:17:10;103248.20;;;1.73;76.87
78892;BME280;68368;51.728;5.248;2023-04-03T05:19:12;103246.23;;;1.72;76.81
78892;BME280;68368;51.728;5.248;2023-04-03T05:21:14;103249.09;;;1.73;76.77
78892;BME280;68368;51.728;5.248;2023-04-03T05:23:16;103250.67;;;1.73;76.75
78892;BME280;68368;51.728;5.248;2023-04-03T05:25:18;103250.16;;;1.73;76.91
78892;BME280;68368;51.728;5.248;2023-04-03T05:27:20;103249.52;;;1.74;76.83
78892;BME280;68368;51.728;5.248;2023-04-03T05:29:22;103246.74;;;1.74;76.76
78892;BME280;68368;51.728;5.248;2023-04-03T05:31:24;103251.05;;;1.76;76.87
78892;BME280;68368;51.728;5.248;2023-04-03T05:33:27;103246.52;;;1.77;76.81
78892;BME280;68368;51.728;5.248;2023-04-03T05:35:29;103256.91;;;1.77;76.88
78892;BME280;68368;51.728;5.248;2023-04-03T05:37:33;103259.77;;;1.78;76.69
78892;BME280;68368;51.728;5.248;2023-04-03T05:39:35;103260.48;;;1.81;76.57
78892;BME280;68368;51.728;5.248;2023-04-03T05:41:37;103262.10;;;1.82;76.45
78892;BME280;68368;51.728;5.248;2023-04-03T05:43:39;103264.67;;;1.84;76.55
78892;BME280;68368;51.728;5.248;2023-04-03T05:45:43;103266.32;;;1.85;76.37
78892;BME280;68368;51.728;5.248;2023-04-03T05:47:45;103266.23;;;1.86;76.65
78892;BME280;68368;51.728;5.248;2023-04-03T05:49:48;103269.45;;;1.87;76.31
78892;BME280;68368;51.728;5.248;2023-04-03T05:51:51;103268.66;;;1.89;76.43
78892;BME280;68368;51.728;5.248;2023-04-03T05:53:59;103275.55;;;1.90;76.49
78892;BME280;68368;51.728;5.248;2023-04-03T05:56:04;103280.20;;;1.91;76.44
78892;BME280;68368;51.728;5.248;2023-04-03T05:58:06;103282.42;;;1.93;76.44
78892;BME280;68368;51.728;5.248;2023-04-03T06:00:12;103285.93;;;1.96;76.15
78892;BME280;68368;51.728;5.248;2023-04-03T06:02:17;103280.16;;;1.98;76.11
78892;BME280;68368;51.728;5.248;2023-04-03T06:04:20;103277.66;;;2.00;76.00
78892;BME280;68368;51.728;5.248;2023-04-03T06:06:23;103271.09;;;2.01;76.16
78892;BME280;68368;51.728;5.248;2023-04-03T06:08:26;103276.82;;;2.03;75.92
78892;BME280;68368;51.728;5.248;2023-04-03T06:10:28;103278.49;;;2.06;75.58
78892;BME280;68368;51.728;5.248;2023-04-03T06:12:30;103276.39;;;2.06;75.65
78892;BME280;68368;51.728;5.248;2023-04-03T06:14:32;103276.33;;;2.07;75.73
78892;BME280;68368;51.728;5.248;2023-04-03T06:16:34;103279.20;;;2.08;75.68
78892;BME280;68368;51.728;5.248;2023-04-03T06:18:37;103278.85;;;2.11;75.42
78892;BME280;68368;51.728;5.248;2023-04-03T06:20:42;103286.97;;;2.15;75.30
78892;BME280;68368;51.728;5.248;2023-04-03T06:22:45;103282.63;;;2.18;75.39
78892;BME280;68368;51.728;5.248;2023-04-03T06:24:46;103286.95;;;2.20;75.16
78892;BME280;68368;51.728;5.248;2023-04-03T06:26:49;103293.92;;;2.22;74.57
78892;BME280;68368;51.728;5.248;2023-04-03T06:28:51;103294.54;;;2.23;74.60
78892;BME280;68368;51.728;5.248;2023-04-03T06:30:53;103297.46;;;2.25;74.84
78892;BME280;68368;51.728;5.248;2023-04-03T06:32:55;103300.06;;;2.28;74.91
78892;BME280;68368;51.728;5.248;2023-04-03T06:34:57;103300.27;;;2.28;74.76
78892;BME280;68368;51.728;5.248;2023-04-03T06:37:00;103304.55;;;2.30;74.68
78892;BME280;68368;51.728;5.248;2023-04-03T06:39:02;103306.14;;;2.33;74.35
78892;BME280;68368;51.728;5.248;2023-04-03T06:41:05;103307.14;;;2.34;74.42
78892;BME280;68368;51.728;5.248;2023-04-03T06:43:07;103305.31;;;2.36;74.24
78892;BME280;68368;51.728;5.248;2023-04-03T06:45:10;103306.85;;;2.38;73.73
78892;BME280;68368;51.728;5.248;2023-04-03T06:47:15;103304.75;;;2.38;73.81
78892;BME280;68368;51.728;5.248;2023-04-03T06:49:18;103306.60;;;2.40;74.02
78892;BME280;68368;51.728;5.248;2023-04-03T06:51:21;103305.11;;;2.41;73.88
78892;BME280;68368;51.728;5.248;2023-04-03T06:53:24;103304.64;;;2.42;73.60
78892;BME280;68368;51.728;5.248;2023-04-03T06:55:26;103309.31;;;2.44;73.89
78892;BME280;68368;51.728;5.248;2023-04-03T06:57:28;103308.73;;;2.46;73.35
78892;BME280;68368;51.728;5.248;2023-04-03T06:59:29;103307.46;;;2.47;73.14
78892;BME280;68368;51.728;5.248;2023-04-03T07:01:32;103304.13;;;2.51;73.14
78892;BME280;68368;51.728;5.248;2023-04-03T07:03:34;103308.10;;;2.55;73.56
78892;BME280;68368;51.728;5.248;2023-04-03T07:05:36;103311.41;;;2.61;73.79
78892;BME280;68368;51.728;5.248;2023-04-03T07:07:38;103313.42;;;2.67;73.68
78892;BME280;68368;51.728;5.248;2023-04-03T07:09:41;103318.37;;;2.74;73.59
78892;BME280;68368;51.728;5.248;2023-04-03T07:11:43;103318.48;;;2.79;73.09
78892;BME280;68368;51.728;5.248;2023-04-03T07:13:52;103320.31;;;2.82;72.42
78892;BME280;68368;51.728;5.248;2023-04-03T07:15:56;103328.21;;;2.85;72.75
78892;BME280;68368;51.728;5.248;2023-04-03T07:17:58;103331.16;;;2.87;72.04
78892;BME280;68368;51.728;5.248;2023-04-03T07:20:00;103331.41;;;2.92;72.26
78892;BME280;68368;51.728;5.248;2023-04-03T07:22:02;103328.46;;;2.98;72.46
78892;BME280;68368;51.728;5.248;2023-04-03T07:24:04;103327.45;;;3.05;72.73
78892;BME280;68368;51.728;5.248;2023-04-03T07:26:06;103323.98;;;3.11;72.37
78892;BME280;68368;51.728;5.248;2023-04-03T07:28:17;103329.84;;;3.15;72.19
78892;BME280;68368;51.728;5.248;2023-04-03T07:30:20;103328.13;;;3.19;71.99
78892;BME280;68368;51.728;5.248;2023-04-03T07:32:22;103333.96;;;3.23;71.81
78892;BME280;68368;51.728;5.248;2023-04-03T07:34:24;103337.55;;;3.24;71.13
78892;BME280;68368;51.728;5.248;2023-04-03T07:36:26;103333.00;;;3.24;71.04
78892;BME280;68368;51.728;5.248;2023-04-03T07:38:28;103331.50;;;3.25;70.82
78892;BME280;68368;51.728;5.248;2023-04-03T07:40:30;103330.63;;;3.28;70.85
78892;BME280;68368;51.728;5.248;2023-04-03T07:42:33;103334.17;;;3.32;71.02
78892;BME280;68368;51.728;5.248;2023-04-03T07:44:35;103329.85;;;3.36;70.90
78892;BME280;68368;51.728;5.248;2023-04-03T07:46:39;103330.77;;;3.39;70.86
78892;BME280;68368;51.728;5.248;2023-04-03T07:48:41;103329.19;;;3.45;71.32
78892;BME280;68368;51.728;5.248;2023-04-03T07:50:44;103325.89;;;3.49;70.13
78892;BME280;68368;51.728;5.248;2023-04-03T07:52:49;103329.48;;;3.53;70.63
78892;BME280;68368;51.728;5.248;2023-04-03T07:54:53;103329.29;;;3.59;71.03
78892;BME280;68368;51.728;5.248;2023-04-03T07:56:55;103334.68;;;3.64;70.96
78892;BME280;68368;51.728;5.248;2023-04-03T07:58:56;103336.23;;;3.70;70.75
78892;BME280;68368;51.728;5.248;2023-04-03T08:00:59;103338.77;;;3.77;70.96
78892;BME280;68368;51.728;5.248;2023-04-03T08:03:04;103336.10;;;3.82;70.51
78892;BME280;68368;51.728;5.248;2023-04-03T08:05:07;103337.36;;;3.86;69.17
78892;BME280;68368;51.728;5.248;2023-04-03T08:07:09;103337.31;;;3.88;69.46
78892;BME280;68368;51.728;5.248;2023-04-03T08:09:11;103334.95;;;3.93;69.36
78892;BME280;68368;51.728;5.248;2023-04-03T08:11:14;103335.05;;;4.01;68.56
78892;BME280;68368;51.728;5.248;2023-04-03T08:13:16;103342.04;;;4.10;68.88
78892;BME280;68368;51.728;5.248;2023-04-03T08:15:19;103342.20;;;4.16;67.99
78892;BME280;68368;51.728;5.248;2023-04-03T08:17:21;103343.59;;;4.18;67.65
78892;BME280;68368;51.728;5.248;2023-04-03T08:19:23;103343.64;;;4.22;67.07
78892;BME280;68368;51.728;5.248;2023-04-03T08:21:25;103337.66;;;4.25;66.68
78892;BME280;68368;51.728;5.248;2023-04-03T08:23:27;103342.13;;;4.30;66.63
78892;BME280;68368;51.728;5.248;2023-04-03T08:25:29;103345.57;;;4.35;67.73
78892;BME280;68368;51.728;5.248;2023-04-03T08:27:32;103346.45;;;4.44;67.65
78892;BME280;68368;51.728;5.248;2023-04-03T08:29:33;103347.64;;;4.53;66.41
78892;BME280;68368;51.728;5.248;2023-04-03T08:31:38;103350.67;;;4.57;65.39
78892;BME280;68368;51.728;5.248;2023-04-03T08:33:40;103348.87;;;4.60;64.88
78892;BME280;68368;51.728;5.248;2023-04-03T08:35:42;103353.75;;;4.65;65.31
78892;BME280;68368;51.728;5.248;2023-04-03T08:37:44;103348.77;;;4.71;64.66
78892;BME280;68368;51.728;5.248;2023-04-03T08:39:46;103348.88;;;4.72;64.02
78892;BME280;68368;51.728;5.248;2023-04-03T08:41:49;103352.54;;;4.75;64.32
78892;BME280;68368;51.728;5.248;2023-04-03T08:44:02;103350.48;;;4.80;64.49
78892;BME280;68368;51.728;5.248;2023-04-03T08:46:13;103352.59;;;4.86;63.38
78892;BME280;68368;51.728;5.248;2023-04-03T08:48:19;103361.98;;;4.94;63.60
78892;BME280;68368;51.728;5.248;2023-04-03T08:50:24;103363.52;;;4.99;63.57
78892;BME280;68368;51.728;5.248;2023-04-03T08:52:34;103362.17;;;5.04;63.37
78892;BME280;68368;51.728;5.248;2023-04-03T08:54:47;103361.52;;;5.08;63.34
78892;BME280;68368;51.728;5.248;2023-04-03T08:56:50;103357.23;;;5.14;62.79
78892;BME280;68368;51.728;5.248;2023-04-03T08:58:56;103365.53;;;5.17;62.33
78892;BME280;68368;51.728;5.248;2023-04-03T09:01:05;103365.15;;;5.20;61.09
78892;BME280;68368;51.728;5.248;2023-04-03T09:03:13;103368.76;;;5.22;60.76
78892;BME280;68368;51.728;5.248;2023-04-03T09:05:17;103371.73;;;5.25;61.57
78892;BME280;68368;51.728;5.248;2023-04-03T09:07:25;103372.45;;;5.32;61.44
78892;BME280;68368;51.728;5.248;2023-04-03T09:09:36;103372.27;;;5.39;58.95
78892;BME280;68368;51.728;5.248;2023-04-03T09:11:46;103373.16;;;5.46;59.97
78892;BME280;68368;51.728;5.248;2023-04-03T09:13:54;103372.73;;;5.51;58.43
78892;BME280;68368;51.728;5.248;2023-04-03T09:16:01;103370.29;;;5.55;57.22
78892;BME280;68368;51.728;5.248;2023-04-03T09:18:08;103363.02;;;5.57;55.87
78892;BME280;68368;51.728;5.248;2023-04-03T09:20:23;103362.11;;;5.60;55.92
78892;BME280;68368;51.728;5.248;2023-04-03T09:22:31;103360.77;;;5.65;55.36
78892;BME280;68368;51.728;5.248;2023-04-03T09:24:34;103359.30;;;5.67;53.82
78892;BME280;68368;51.728;5.248;2023-04-03T09:26:43;103360.36;;;5.67;53.25
78892;BME280;68368;51.728;5.248;2023-04-03T09:28:47;103361.86;;;5.70;53.33
78892;BME280;68368;51.728;5.248;2023-04-03T09:30:49;103361.94;;;5.71;53.29
78892;BME280;68368;51.728;5.248;2023-04-03T09:32:52;103361.02;;;5.74;52.32
78892;BME280;68368;51.728;5.248;2023-04-03T09:34:57;103359.81;;;5.78;52.77
78892;BME280;68368;51.728;5.248;2023-04-03T09:37:04;103357.36;;;5.85;51.65
78892;BME280;68368;51.728;5.248;2023-04-03T09:39:07;103355.47;;;5.93;51.34
78892;BME280;68368;51.728;5.248;2023-04-03T09:41:16;103350.60;;;6.01;50.12
78892;BME280;68368;51.728;5.248;2023-04-03T09:43:26;103354.23;;;6.07;50.17
78892;BME280;68368;51.728;5.248;2023-04-03T09:45:29;103350.17;;;6.10;48.37
78892;BME280;68368;51.728;5.248;2023-04-03T09:47:33;103346.42;;;6.13;48.33
78892;BME280;68368;51.728;5.248;2023-04-03T09:49:35;103347.17;;;6.18;48.34
78892;BME280;68368;51.728;5.248;2023-04-03T09:51:38;103344.02;;;6.22;46.18
78892;BME280;68368;51.728;5.248;2023-04-03T09:53:41;103340.14;;;6.29;47.56
78892;BME280;68368;51.728;5.248;2023-04-03T09:55:45;103338.84;;;6.39;47.60
78892;BME280;68368;51.728;5.248;2023-04-03T09:57:48;103344.92;;;6.48;46.15
78892;BME280;68368;51.728;5.248;2023-04-03T09:59:58;103338.69;;;6.54;47.20
78892;BME280;68368;51.728;5.248;2023-04-03T10:02:03;103337.77;;;6.65;45.91
78892;BME280;68368;51.728;5.248;2023-04-03T10:04:11;103332.37;;;6.67;45.16
78892;BME280;68368;51.728;5.248;2023-04-03T10:06:23;103332.67;;;6.73;45.79
78892;BME280;68368;51.728;5.248;2023-04-03T10:08:29;103325.56;;;6.80;44.67
78892;BME280;68368;51.728;5.248;2023-04-03T10:10:31;103321.96;;;6.83;42.77
78892;BME280;68368;51.728;5.248;2023-04-03T10:12:33;103322.65;;;6.86;44.46
78892;BME280;68368;51.728;5.248;2023-04-03T10:14:40;103318.75;;;6.93;43.90
78892;BME280;68368;51.728;5.248;2023-04-03T10:16:46;103316.30;;;7.10;40.55
78892;BME280;68368;51.728;5.248;2023-04-03T10:18:58;103311.92;;;7.31;38.23
78892;BME280;68368;51.728;5.248;2023-04-03T10:21:06;103314.02;;;7.51;35.63
78892;BME280;68368;51.728;5.248;2023-04-03T10:23:18;103317.05;;;7.68;36.84
78892;BME280;68368;51.728;5.248;2023-04-03T10:25:30;103316.05;;;7.87;35.36
78892;BME280;68368;51.728;5.248;2023-04-03T10:27:42;103317.95;;;8.08;34.84
78892;BME280;68368;51.728;5.248;2023-04-03T10:29:51;103315.42;;;8.25;34.30
78892;BME280;68368;51.728;5.248;2023-04-03T10:32:01;103305.36;;;8.48;34.60
78892;BME280;68368;51.728;5.248;2023-04-03T10:34:06;103300.73;;;8.84;34.70
78892;BME280;68368;51.728;5.248;2023-04-03T10:36:25;103300.13;;;9.23;33.61
78892;BME280;68368;51.728;5.248;2023-04-03T10:38:36;103295.17;;;9.43;32.46
78892;BME280;68368;51.728;5.248;2023-04-03T10:40:50;103296.13;;;9.61;32.42
78892;BME280;68368;51.728;5.248;2023-04-03T10:42:55;103301.01;;;9.64;30.59
78892;BME280;68368;51.728;5.248;2023-04-03T10:45:14;103291.83;;;9.59;32.50
78892;BME280;68368;51.728;5.248;2023-04-03T10:47:22;103288.88;;;9.56;32.78
78892;BME280;68368;51.728;5.248;2023-04-03T10:49:35;103290.04;;;9.54;31.90
78892;BME280;68368;51.728;5.248;2023-04-03T10:51:47;103291.27;;;9.48;31.26
78892;BME280;68368;51.728;5.248;2023-04-03T10:53:54;103285.21;;;9.42;31.27
78892;BME280;68368;51.728;5.248;2023-04-03T10:56:02;103286.35;;;9.39;31.50
78892;BME280;68368;51.728;5.248;2023-04-03T10:58:17;103278.27;;;9.42;31.16
78892;BME280;68368;51.728;5.248;2023-04-03T11:00:21;103275.61;;;9.46;31.12